createdAt,value
2017-09-03T00:00:16.265Z,8.68
2017-09-03T00:02:43.779Z,9.13
2017-09-03T00:05:11.298Z,8.23
2017-09-03T00:07:38.835Z,10.07
2017-09-03T00:10:07.149Z,8.73
2017-09-03T00:12:34.653Z,9.27
2017-09-03T00:15:02.147Z,9.40
2017-09-03T00:17:29.666Z,8.65
2017-09-03T00:19:57.295Z,8.65
2017-09-03T00:22:24.823Z,8.50
2017-09-03T00:24:52.344Z,10.10
2017-09-03T00:27:19.867Z,9.00
2017-09-03T00:29:47.374Z,9.05
2017-09-03T00:32:14.916Z,8.75
2017-09-03T00:34:42.690Z,8.55
2017-09-03T00:37:10.238Z,8.07
2017-09-03T00:39:37.752Z,8.95
2017-09-03T00:42:05.287Z,8.10
2017-09-03T00:44:32.819Z,7.70
2017-09-03T00:47:00.338Z,8.48
2017-09-03T00:49:27.863Z,8.02
2017-09-03T00:51:55.400Z,8.27
2017-09-03T00:54:22.910Z,8.02
2017-09-03T00:56:50.447Z,7.93
2017-09-03T00:59:17.958Z,6.90
2017-09-03T01:01:45.478Z,7.70
2017-09-03T01:04:12.995Z,7.30
2017-09-03T01:06:40.527Z,7.53
2017-09-03T01:09:08.041Z,7.43
2017-09-03T01:11:35.570Z,6.93
2017-09-03T01:14:03.090Z,8.18
2017-09-03T01:16:30.621Z,8.18
2017-09-03T01:18:58.142Z,7.30
2017-09-03T01:21:25.655Z,7.82
2017-09-03T01:23:53.177Z,7.90
2017-09-03T01:26:20.686Z,8.10
2017-09-03T01:28:48.228Z,8.25
2017-09-03T01:31:15.734Z,7.80
2017-09-03T01:33:43.268Z,7.25
2017-09-03T01:36:10.969Z,7.80
2017-09-03T01:38:38.502Z,7.87
2017-09-03T01:41:06.018Z,7.03
2017-09-03T01:43:33.560Z,6.75
2017-09-03T01:46:01.095Z,7.43
2017-09-03T01:48:28.651Z,7.25
2017-09-03T01:50:56.162Z,7.85
2017-09-03T01:53:23.682Z,7.43
2017-09-03T01:55:51.191Z,7.57
2017-09-03T01:58:18.720Z,6.50
2017-09-03T02:00:46.221Z,7.43
2017-09-03T02:03:13.755Z,6.40
2017-09-03T02:05:41.293Z,7.95
2017-09-03T02:08:09.787Z,6.60
2017-09-03T02:10:37.320Z,7.60
2017-09-03T02:13:04.843Z,7.60
2017-09-03T02:15:32.395Z,6.65
2017-09-03T02:17:59.934Z,7.37
2017-09-03T02:20:27.530Z,7.07
2017-09-03T02:22:55.047Z,7.00
2017-09-03T02:25:22.576Z,6.07
2017-09-03T02:27:50.088Z,6.75
2017-09-03T02:30:17.613Z,7.20
2017-09-03T02:32:45.119Z,6.95
2017-09-03T02:35:14.628Z,7.47
2017-09-03T02:37:42.150Z,6.72
2017-09-03T02:40:09.678Z,7.12
2017-09-03T02:42:37.225Z,7.85
2017-09-03T02:45:04.755Z,8.13
2017-09-03T02:47:32.280Z,6.50
2017-09-03T02:49:59.815Z,7.72
2017-09-03T02:52:27.347Z,7.40
2017-09-03T02:54:54.938Z,6.95
2017-09-03T02:57:22.602Z,7.72
2017-09-03T02:59:50.126Z,8.05
2017-09-03T03:02:17.653Z,9.00
2017-09-03T03:04:45.175Z,8.50
2017-09-03T03:07:12.679Z,9.75
2017-09-03T03:09:41.139Z,8.95
2017-09-03T03:12:08.651Z,10.13
2017-09-03T03:14:36.180Z,9.27
2017-09-03T03:17:03.699Z,9.10
2017-09-03T03:19:31.251Z,10.30
2017-09-03T03:21:58.799Z,10.90
2017-09-03T03:24:26.315Z,10.18
2017-09-03T03:26:53.845Z,10.15
2017-09-03T03:29:21.358Z,10.63
2017-09-03T03:31:48.892Z,10.52
2017-09-03T03:34:16.410Z,11.05
2017-09-03T03:36:44.723Z,11.50
2017-09-03T03:39:12.251Z,12.23
2017-09-03T03:41:39.879Z,13.00
2017-09-03T03:44:07.427Z,12.20
2017-09-03T03:46:34.971Z,14.55
2017-09-03T03:49:02.489Z,14.32
2017-09-03T03:51:30.074Z,13.25
2017-09-03T03:53:57.598Z,13.80
2017-09-03T03:56:25.134Z,14.43
2017-09-03T03:58:52.749Z,15.10
2017-09-03T04:01:20.308Z,13.45
2017-09-03T04:03:47.821Z,13.43
2017-09-03T04:06:15.373Z,13.02
2017-09-03T04:08:42.884Z,14.32
2017-09-03T04:11:10.421Z,15.32
2017-09-03T04:13:37.944Z,15.10
2017-09-03T04:16:05.475Z,14.27
2017-09-03T04:18:32.991Z,15.43
2017-09-03T04:21:00.530Z,14.32
2017-09-03T04:23:28.047Z,14.77
2017-09-03T04:25:55.559Z,16.02
2017-09-03T04:28:26.868Z,15.27
2017-09-03T04:30:54.385Z,16.15
2017-09-03T04:33:21.937Z,15.85
2017-09-03T04:35:49.451Z,15.52
2017-09-03T04:38:16.998Z,15.73
2017-09-03T04:40:44.560Z,15.60
2017-09-03T04:43:12.238Z,16.77
2017-09-03T04:45:39.796Z,17.50
2017-09-03T04:48:07.347Z,17.40
2017-09-03T04:50:34.860Z,15.75
2017-09-03T04:53:02.431Z,16.40
2017-09-03T04:55:29.946Z,17.27
2017-09-03T04:57:57.487Z,16.25
2017-09-03T05:00:25.059Z,16.50
2017-09-03T05:02:52.595Z,18.20
2017-09-03T05:05:20.124Z,15.95
2017-09-03T05:07:50.773Z,15.73
2017-09-03T05:10:18.315Z,16.20
2017-09-03T05:12:45.842Z,16.17
2017-09-03T05:15:13.356Z,15.70
2017-09-03T05:17:40.882Z,16.85
2017-09-03T05:20:08.395Z,14.70
2017-09-03T05:22:35.933Z,16.30
2017-09-03T05:25:04.391Z,14.80
2017-09-03T05:27:31.946Z,16.65
2017-09-03T05:29:59.467Z,14.85
2017-09-03T05:32:27.005Z,15.85
2017-09-03T05:34:54.666Z,16.37
2017-09-03T05:37:22.170Z,15.63
2017-09-03T05:39:49.716Z,15.48
2017-09-03T05:42:17.250Z,15.60
2017-09-03T05:44:44.778Z,16.42
2017-09-03T05:47:12.293Z,16.33
2017-09-03T05:49:39.823Z,15.88
2017-09-03T05:52:07.338Z,15.45
2017-09-03T05:54:34.860Z,17.37
2017-09-03T05:57:02.391Z,16.55
2017-09-03T05:59:29.918Z,16.98
2017-09-03T06:01:57.458Z,16.40
2017-09-03T06:04:24.993Z,16.25
2017-09-03T06:06:53.442Z,15.55
2017-09-03T06:09:20.972Z,15.82
2017-09-03T06:11:48.486Z,15.40
2017-09-03T06:14:16.016Z,16.35
2017-09-03T06:16:43.545Z,16.70
2017-09-03T06:19:11.124Z,17.35
2017-09-03T06:21:38.691Z,16.33
2017-09-03T06:24:06.225Z,16.75
2017-09-03T06:26:33.746Z,16.20
2017-09-03T06:29:01.288Z,16.70
2017-09-03T06:31:28.811Z,17.33
2017-09-03T06:33:56.355Z,15.77
2017-09-03T06:36:23.890Z,17.65
2017-09-03T06:38:51.409Z,16.40
2017-09-03T06:41:18.931Z,17.33
2017-09-03T06:43:46.445Z,17.15
2017-09-03T06:46:13.992Z,16.05
2017-09-03T06:48:41.520Z,16.90
2017-09-03T06:51:09.051Z,15.38
2017-09-03T06:53:36.560Z,17.05
2017-09-03T06:56:04.098Z,14.15
2017-09-03T06:58:31.623Z,15.77
2017-09-03T07:00:59.189Z,15.95
2017-09-03T07:03:27.586Z,16.02
2017-09-03T07:05:55.134Z,16.52
2017-09-03T07:08:22.906Z,14.43
2017-09-03T07:10:52.859Z,12.30
2017-09-03T07:13:20.396Z,14.43
2017-09-03T07:15:52.099Z,15.30
2017-09-03T07:18:26.362Z,13.98
2017-09-03T07:20:53.894Z,14.68
2017-09-03T07:23:21.404Z,13.35
2017-09-03T07:25:48.927Z,13.77
2017-09-03T07:28:21.515Z,14.60
2017-09-03T07:30:49.071Z,13.30
2017-09-03T07:33:16.632Z,11.57
2017-09-03T07:35:44.242Z,12.60
2017-09-03T07:38:11.923Z,12.85
2017-09-03T07:40:39.518Z,11.63
2017-09-03T07:43:07.078Z,12.07
2017-09-03T07:45:34.596Z,11.52
2017-09-03T07:48:02.163Z,11.60
2017-09-03T07:50:29.685Z,10.68
2017-09-03T07:52:57.221Z,10.90
2017-09-03T07:55:24.731Z,11.20
2017-09-03T07:57:53.038Z,11.40
2017-09-03T08:00:20.537Z,10.88
2017-09-03T08:02:48.074Z,12.43
2017-09-03T08:05:15.593Z,11.05
2017-09-03T08:07:43.159Z,11.65
2017-09-03T08:10:10.694Z,11.93
2017-09-03T08:12:38.227Z,10.32
2017-09-03T08:15:05.778Z,10.05
2017-09-03T08:17:33.302Z,10.73
2017-09-03T08:20:00.876Z,9.68
2017-09-03T08:22:29.192Z,10.45
2017-09-03T08:24:56.715Z,10.32
2017-09-03T08:27:24.260Z,10.25
2017-09-03T08:29:51.762Z,9.55
2017-09-03T08:32:19.302Z,9.52
2017-09-03T08:34:46.843Z,10.88
2017-09-03T08:37:14.580Z,9.73
2017-09-03T08:39:42.134Z,9.02
2017-09-03T08:42:09.814Z,9.30
2017-09-03T08:44:37.317Z,8.40
2017-09-03T08:47:05.695Z,8.32
2017-09-03T08:49:33.217Z,7.25
2017-09-03T08:52:00.732Z,7.47
2017-09-03T08:54:28.258Z,8.85
2017-09-03T08:56:55.763Z,9.38
2017-09-03T08:59:23.319Z,7.80
2017-09-03T09:01:50.824Z,8.50
2017-09-03T09:04:18.383Z,7.65
2017-09-03T09:06:45.893Z,8.10
2017-09-03T09:09:13.427Z,6.68
2017-09-03T09:11:40.941Z,7.68
2017-09-03T09:14:09.566Z,7.85
2017-09-03T09:16:37.069Z,7.60
2017-09-03T09:19:05.541Z,7.60
2017-09-03T09:21:33.089Z,7.78
2017-09-03T09:24:00.612Z,7.65
2017-09-03T09:26:28.156Z,7.75
2017-09-03T09:28:55.706Z,6.97
2017-09-03T09:31:23.210Z,7.62
2017-09-03T09:33:50.762Z,7.60
2017-09-03T09:36:18.328Z,8.18
2017-09-03T09:38:45.855Z,6.80
2017-09-03T09:41:13.427Z,6.87
2017-09-03T09:43:40.958Z,7.65
2017-09-03T09:46:08.486Z,6.47
2017-09-03T09:48:36.026Z,6.60
2017-09-03T09:51:03.583Z,7.00
2017-09-03T09:53:31.124Z,7.15
2017-09-03T09:55:58.660Z,6.65
2017-09-03T09:58:26.185Z,6.30
2017-09-03T10:00:53.715Z,6.03
2017-09-03T10:03:21.227Z,5.97
2017-09-03T10:05:48.765Z,7.35
2017-09-03T10:08:16.291Z,7.78
2017-09-03T10:10:43.843Z,6.93
2017-09-03T10:13:11.350Z,6.97
2017-09-03T10:15:38.911Z,7.03
2017-09-03T10:18:06.423Z,7.07
2017-09-03T10:20:33.947Z,7.18
2017-09-03T10:23:01.469Z,7.40
2017-09-03T10:25:28.999Z,7.12
2017-09-03T10:27:56.512Z,7.47
2017-09-03T10:30:24.036Z,7.00
2017-09-03T10:32:51.543Z,6.40
2017-09-03T10:35:19.070Z,6.85
2017-09-03T10:37:46.579Z,6.28
2017-09-03T10:40:14.964Z,6.40
2017-09-03T10:42:42.484Z,5.65
2017-09-03T10:45:10.006Z,5.65
2017-09-03T10:47:37.550Z,5.82
2017-09-03T10:50:05.096Z,5.37
2017-09-03T10:52:32.626Z,6.30
2017-09-03T10:55:00.133Z,6.90
2017-09-03T10:57:27.662Z,6.68
2017-09-03T10:59:55.188Z,6.57
2017-09-03T11:02:22.733Z,6.45
2017-09-03T11:04:50.230Z,4.90
2017-09-03T11:07:17.758Z,5.03
2017-09-03T11:09:45.307Z,5.72
2017-09-03T11:12:12.830Z,4.55
2017-09-03T11:14:40.345Z,5.35
2017-09-03T11:17:07.875Z,4.45
2017-09-03T11:19:35.390Z,4.55
2017-09-03T11:22:02.938Z,4.55
2017-09-03T11:24:31.287Z,4.60
2017-09-03T11:26:58.898Z,4.15
2017-09-03T11:29:26.494Z,4.70
2017-09-03T11:31:59.338Z,4.18
2017-09-03T11:34:28.834Z,4.30
2017-09-03T11:36:56.359Z,3.35
2017-09-03T11:39:23.872Z,4.45
2017-09-03T11:41:57.279Z,4.10
2017-09-03T11:44:24.796Z,4.60
2017-09-03T11:46:52.328Z,3.87
2017-09-03T11:49:19.845Z,3.53
2017-09-03T11:51:47.376Z,3.90
2017-09-03T11:57:12.003Z,3.12
2017-09-03T11:59:39.509Z,2.70
2017-09-03T12:02:07.038Z,3.25
2017-09-03T12:04:34.570Z,3.10
2017-09-03T12:07:02.125Z,2.62
2017-09-03T12:09:29.618Z,3.90
2017-09-03T12:11:57.125Z,3.40
2017-09-03T12:14:24.663Z,2.62
2017-09-03T12:16:52.168Z,2.65
2017-09-03T12:19:19.689Z,3.42
2017-09-03T12:21:47.207Z,3.20
2017-09-03T12:24:14.719Z,3.20
2017-09-03T12:26:42.233Z,3.60
2017-09-03T12:29:09.751Z,3.65
2017-09-03T12:31:37.273Z,3.20
2017-09-03T12:34:04.802Z,3.80
2017-09-03T12:36:32.324Z,3.60
2017-09-03T12:38:59.842Z,3.92
2017-09-03T12:41:28.112Z,4.78
2017-09-03T12:44:19.755Z,5.00
2017-09-03T12:46:59.088Z,4.75
2017-09-03T12:49:26.613Z,4.10
2017-09-03T12:51:59.705Z,3.70
2017-09-03T12:54:27.231Z,4.00
2017-09-03T12:56:54.744Z,4.60
2017-09-03T12:59:22.275Z,4.37
2017-09-03T13:01:49.791Z,4.65
2017-09-03T13:04:17.312Z,4.20
2017-09-03T13:06:44.817Z,4.05
2017-09-03T13:09:12.379Z,4.10
2017-09-03T13:11:39.909Z,4.35
2017-09-03T13:14:07.430Z,3.33
2017-09-03T13:16:34.954Z,3.95
2017-09-03T13:19:02.480Z,3.80
2017-09-03T13:21:29.979Z,3.85
2017-09-03T13:23:57.512Z,3.85
2017-09-03T13:26:25.022Z,4.45
2017-09-03T13:28:52.595Z,5.10
2017-09-03T13:31:20.134Z,4.15
2017-09-03T13:33:47.657Z,3.60
2017-09-03T13:36:15.203Z,4.20
2017-09-03T13:38:42.738Z,3.85
2017-09-03T13:41:10.257Z,3.65
2017-09-03T13:43:37.793Z,3.35
2017-09-03T13:46:05.335Z,6.25
2017-09-03T13:48:32.867Z,15.00
2017-09-03T13:51:00.399Z,13.50
2017-09-03T13:53:27.919Z,9.30
2017-09-03T13:55:55.455Z,11.15
2017-09-03T13:58:22.988Z,9.10
2017-09-03T14:00:50.557Z,5.82
2017-09-03T14:03:18.074Z,11.07
2017-09-03T14:05:45.637Z,15.15
2017-09-03T14:08:13.203Z,8.93
2017-09-03T14:10:40.732Z,7.95
2017-09-03T14:13:08.270Z,8.57
2017-09-03T14:15:35.966Z,8.60
2017-09-03T14:18:03.514Z,8.23
2017-09-03T14:20:31.067Z,8.25
2017-09-03T14:22:58.578Z,7.93
2017-09-03T14:25:26.145Z,9.93
2017-09-03T14:27:53.659Z,10.00
2017-09-03T14:30:21.201Z,8.82
2017-09-03T14:32:48.711Z,8.75
2017-09-03T14:35:16.210Z,6.22
2017-09-03T14:37:47.530Z,6.03
2017-09-03T14:40:20.911Z,6.00
2017-09-03T14:42:48.519Z,5.18
2017-09-03T14:45:16.026Z,5.37
2017-09-03T14:47:50.646Z,4.05
2017-09-03T14:50:18.149Z,3.75
2017-09-03T14:52:45.705Z,3.33
2017-09-03T14:55:13.223Z,4.30
2017-09-03T14:57:40.759Z,4.70
2017-09-03T15:00:08.278Z,4.85
2017-09-03T15:02:35.844Z,7.55
2017-09-03T15:05:03.355Z,7.18
2017-09-03T15:07:30.874Z,5.35
2017-09-03T15:09:58.377Z,4.43
2017-09-03T15:12:25.898Z,4.00
2017-09-03T15:14:53.419Z,3.92
2017-09-03T15:17:20.937Z,4.57
2017-09-03T15:19:48.442Z,3.80
2017-09-03T15:22:15.970Z,4.90
2017-09-03T15:24:43.491Z,4.03
2017-09-03T15:27:11.017Z,4.00
2017-09-03T15:29:38.523Z,3.67
2017-09-03T15:32:06.059Z,3.87
2017-09-03T15:34:33.561Z,4.65
2017-09-03T15:37:01.109Z,4.10
2017-09-03T15:39:28.613Z,4.85
2017-09-03T15:41:56.134Z,3.80
2017-09-03T15:44:23.654Z,3.50
2017-09-03T15:46:51.159Z,3.45
2017-09-03T15:49:18.698Z,2.72
2017-09-03T15:51:46.226Z,2.70
2017-09-03T15:54:13.767Z,2.90
2017-09-03T15:56:41.279Z,3.40
2017-09-03T15:59:08.807Z,2.90
2017-09-03T16:01:36.330Z,3.90
2017-09-03T16:04:03.863Z,2.95
2017-09-03T16:06:31.386Z,4.07
2017-09-03T16:08:58.947Z,3.40
2017-09-03T16:11:26.446Z,3.40
2017-09-03T16:13:53.962Z,4.07
2017-09-03T16:16:21.471Z,3.65
2017-09-03T16:18:49.000Z,3.20
2017-09-03T16:21:16.510Z,4.50
2017-09-03T16:23:44.024Z,4.20
2017-09-03T16:26:11.547Z,5.10
2017-09-03T16:28:39.081Z,4.00
2017-09-03T16:31:06.705Z,3.55
2017-09-03T16:33:34.268Z,3.45
2017-09-03T16:36:01.816Z,3.83
2017-09-03T16:38:29.360Z,3.25
2017-09-03T16:40:56.870Z,2.85
2017-09-03T16:43:24.396Z,2.95
2017-09-03T16:45:51.934Z,2.47
2017-09-03T16:48:36.417Z,2.60
2017-09-03T16:51:03.947Z,4.22
2017-09-03T16:53:31.495Z,3.60
2017-09-03T16:55:59.022Z,3.10
2017-09-03T16:58:26.553Z,3.78
2017-09-03T17:00:54.072Z,3.53
2017-09-03T17:03:21.574Z,2.60
2017-09-03T17:05:49.110Z,3.65
2017-09-03T17:08:16.614Z,3.05
2017-09-03T17:10:44.182Z,2.95
2017-09-03T17:13:11.695Z,3.47
2017-09-03T17:15:39.246Z,2.42
2017-09-03T17:18:06.754Z,2.80
2017-09-03T17:20:35.190Z,2.62
2017-09-03T17:23:02.738Z,2.60
2017-09-03T17:25:30.275Z,2.78
2017-09-03T17:27:58.470Z,2.60
2017-09-03T17:30:27.675Z,2.35
2017-09-03T17:32:55.195Z,2.22
2017-09-03T17:35:24.131Z,2.62
2017-09-03T17:38:07.427Z,2.30
2017-09-03T17:40:35.507Z,1.95
2017-09-03T17:43:04.138Z,2.60
2017-09-03T17:45:31.701Z,2.10
2017-09-03T17:47:59.212Z,2.08
2017-09-03T17:50:26.796Z,1.83
2017-09-03T17:52:54.354Z,2.40
2017-09-03T17:55:21.899Z,2.10
2017-09-03T17:57:50.195Z,2.10
2017-09-03T18:00:18.069Z,2.30
2017-09-03T18:02:45.631Z,2.20
2017-09-03T18:05:14.046Z,2.22
2017-09-03T18:07:41.578Z,2.35
2017-09-03T18:10:09.090Z,2.20
2017-09-03T18:12:36.619Z,2.45
2017-09-03T18:15:04.139Z,2.72
2017-09-03T18:17:31.674Z,2.53
2017-09-03T18:19:59.190Z,3.30
2017-09-03T18:22:26.803Z,2.28
2017-09-03T18:24:54.313Z,2.78
2017-09-03T18:27:21.852Z,2.87
2017-09-03T18:29:52.286Z,2.85
2017-09-03T18:32:19.815Z,2.50
2017-09-03T18:34:48.108Z,3.03
2017-09-03T18:37:18.334Z,2.60
2017-09-03T18:39:53.494Z,2.55
2017-09-03T18:42:23.231Z,2.70
2017-09-03T18:44:50.734Z,2.60
2017-09-03T18:47:18.241Z,2.47
2017-09-03T18:52:57.400Z,2.15
2017-09-03T18:55:26.431Z,2.45
2017-09-03T18:57:58.521Z,2.50
2017-09-03T19:00:26.082Z,2.28
2017-09-03T19:03:04.369Z,3.55
2017-09-03T19:05:32.716Z,4.75
2017-09-03T19:08:00.255Z,5.12
2017-09-03T19:10:27.864Z,3.62
2017-09-03T19:12:55.397Z,3.85
2017-09-03T19:15:22.965Z,4.12
2017-09-03T19:17:50.522Z,4.35
2017-09-03T19:20:18.164Z,4.32
2017-09-03T19:22:45.706Z,4.50
2017-09-03T19:25:13.265Z,5.00
2017-09-03T19:27:40.805Z,3.87
2017-09-03T19:30:08.372Z,3.80
2017-09-03T19:32:35.916Z,3.50
2017-09-03T19:35:03.506Z,3.80
2017-09-03T19:37:40.997Z,4.22
2017-09-03T19:40:08.549Z,3.85
2017-09-03T19:42:36.105Z,4.12
2017-09-03T19:45:03.661Z,3.97
2017-09-03T19:47:31.186Z,4.10
2017-09-03T19:49:58.713Z,4.30
2017-09-03T19:52:26.267Z,5.05
2017-09-03T19:55:05.052Z,4.60
2017-09-03T19:57:32.604Z,5.62
2017-09-03T20:00:00.161Z,6.40
2017-09-03T20:02:27.729Z,6.95
2017-09-03T20:04:55.294Z,7.53
2017-09-03T20:07:22.841Z,6.62
2017-09-03T20:09:50.368Z,5.75
2017-09-03T20:12:17.932Z,5.68
2017-09-03T20:14:45.468Z,5.60
2017-09-03T20:17:13.021Z,5.25
2017-09-03T20:19:40.534Z,5.00
2017-09-03T20:22:08.082Z,5.47
2017-09-03T20:24:35.612Z,4.80
2017-09-03T20:27:03.168Z,5.43
2017-09-03T20:29:30.709Z,4.45
2017-09-03T20:31:58.250Z,5.32
2017-09-03T20:34:25.813Z,4.82
2017-09-03T20:36:53.398Z,4.47
2017-09-03T20:39:20.938Z,4.43
2017-09-03T20:41:48.493Z,4.78
2017-09-03T20:44:16.041Z,5.18
2017-09-03T20:46:43.589Z,4.90
2017-09-03T20:49:11.117Z,5.15
2017-09-03T20:51:40.494Z,4.20
2017-09-03T20:54:08.024Z,4.40
2017-09-03T20:56:35.557Z,4.37
2017-09-03T20:59:03.098Z,4.50
2017-09-03T21:01:30.650Z,4.85
2017-09-03T21:03:58.221Z,4.57
2017-09-03T21:06:25.740Z,4.47
2017-09-03T21:08:53.360Z,4.55
2017-09-03T21:11:20.881Z,4.90
2017-09-03T21:13:50.316Z,4.22
2017-09-03T21:16:17.840Z,4.20
2017-09-03T21:18:45.389Z,3.80
2017-09-03T21:21:12.948Z,4.30
2017-09-03T21:23:40.493Z,4.55
2017-09-03T21:26:08.009Z,4.60
2017-09-03T21:28:35.547Z,4.15
2017-09-03T21:31:03.076Z,3.85
2017-09-03T21:33:30.621Z,4.50
2017-09-03T21:35:58.196Z,4.30
2017-09-03T21:38:25.751Z,4.47
2017-09-03T21:40:53.272Z,4.90
2017-09-03T21:43:20.835Z,4.40
2017-09-03T21:45:48.356Z,4.43
2017-09-03T21:48:15.930Z,4.85
2017-09-03T21:50:43.462Z,4.82
2017-09-03T21:53:11.005Z,4.90
2017-09-03T21:55:38.533Z,4.37
2017-09-03T21:58:06.185Z,4.37
2017-09-03T22:00:33.720Z,4.03
2017-09-03T22:03:01.250Z,4.40
2017-09-03T22:05:28.806Z,4.10
2017-09-03T22:07:56.330Z,4.62
2017-09-03T22:10:30.988Z,4.18
2017-09-03T22:13:08.737Z,4.10
2017-09-03T22:15:42.505Z,4.68
2017-09-03T22:18:10.025Z,3.95
2017-09-03T22:20:37.595Z,4.40
2017-09-03T22:23:05.121Z,4.45
2017-09-03T22:25:32.727Z,4.30
2017-09-03T22:28:00.340Z,4.80
2017-09-03T22:30:27.889Z,4.20
2017-09-03T22:32:55.417Z,4.45
2017-09-03T22:35:22.984Z,4.55
2017-09-03T22:37:50.508Z,4.12
2017-09-03T22:40:18.056Z,3.95
2017-09-03T22:42:45.580Z,4.20
2017-09-03T22:45:13.110Z,3.70
2017-09-03T22:47:40.687Z,3.83
2017-09-03T22:50:08.305Z,4.00
2017-09-03T22:52:35.836Z,3.17
2017-09-03T22:55:03.379Z,3.83
2017-09-03T22:57:30.913Z,3.55
2017-09-03T22:59:58.440Z,4.70
2017-09-03T23:02:25.967Z,4.03
2017-09-03T23:04:53.508Z,3.90
2017-09-03T23:07:21.029Z,3.45
2017-09-03T23:09:48.562Z,4.03
2017-09-03T23:12:16.096Z,4.05
2017-09-03T23:14:43.649Z,3.87
2017-09-03T23:17:11.209Z,3.90
2017-09-03T23:19:38.733Z,4.10
2017-09-03T23:22:06.375Z,3.62
2017-09-03T23:24:33.897Z,4.18
2017-09-03T23:27:01.452Z,4.15
2017-09-03T23:29:29.039Z,4.28
2017-09-03T23:31:56.664Z,4.55
2017-09-03T23:34:24.194Z,3.85
2017-09-03T23:36:51.750Z,4.07
2017-09-03T23:39:19.272Z,3.95
2017-09-03T23:41:47.149Z,3.70
2017-09-03T23:44:14.693Z,4.22
2017-09-03T23:46:42.232Z,4.43
2017-09-03T23:49:09.761Z,3.78
2017-09-03T23:51:41.071Z,3.28
2017-09-03T23:54:08.600Z,3.60
2017-09-03T23:56:36.152Z,3.58
2017-09-03T23:59:03.726Z,3.40
